createdAt,value
2023-12-12T00:00:17.808Z,0.30
2023-12-12T00:02:50.471Z,0.40
2023-12-12T00:05:26.399Z,0.30
2023-12-12T00:07:56.913Z,0.40
2023-12-12T00:10:27.266Z,0.30
2023-12-12T00:12:57.689Z,0.60
2023-12-12T00:15:28.101Z,0.40
2023-12-12T00:17:58.476Z,0.32
2023-12-12T00:20:28.817Z,1.45
2023-12-12T00:22:59.180Z,0.30
2023-12-12T00:25:29.625Z,0.30
2023-12-12T00:28:00.148Z,0.30
2023-12-12T00:30:30.511Z,0.30
2023-12-12T00:33:00.881Z,0.32
2023-12-12T00:35:31.724Z,0.30
2023-12-12T00:38:02.489Z,0.40
2023-12-12T00:40:33.063Z,0.30
2023-12-12T00:43:03.500Z,0.40
2023-12-12T00:45:33.813Z,0.35
2023-12-12T00:48:04.154Z,0.50
2023-12-12T00:50:34.502Z,0.43
2023-12-12T00:53:05.780Z,0.30
2023-12-12T00:55:36.179Z,0.50
2023-12-12T00:58:06.656Z,0.40
2023-12-12T01:00:38.678Z,0.32
2023-12-12T01:03:10.785Z,0.35
2023-12-12T01:05:41.907Z,0.50
2023-12-12T01:08:12.659Z,0.45
2023-12-12T01:10:43.060Z,0.32
2023-12-12T01:13:13.451Z,0.40
2023-12-12T01:15:43.780Z,0.30
2023-12-12T01:18:14.635Z,0.30
2023-12-12T01:20:45.045Z,0.50
2023-12-12T01:23:16.384Z,0.30
2023-12-12T01:25:47.198Z,0.40
2023-12-12T01:28:17.703Z,0.40
2023-12-12T01:30:48.798Z,0.40
2023-12-12T01:33:22.185Z,0.50
2023-12-12T01:35:52.455Z,0.45
2023-12-12T01:38:28.912Z,0.40
2023-12-12T01:40:59.204Z,0.55
2023-12-12T01:43:32.056Z,0.40
2023-12-12T01:46:08.699Z,0.73
2023-12-12T01:48:39.548Z,0.40
2023-12-12T01:51:10.091Z,0.40
2023-12-12T01:53:49.688Z,0.65
2023-12-12T01:56:20.864Z,0.50
2023-12-12T01:58:54.411Z,0.65
2023-12-12T02:01:25.644Z,0.52
2023-12-12T02:03:59.718Z,0.50
2023-12-12T02:06:31.096Z,0.50
2023-12-12T02:09:02.149Z,0.45
2023-12-12T02:11:32.704Z,0.70
2023-12-12T02:14:03.184Z,0.60
2023-12-12T02:16:33.962Z,0.60
2023-12-12T02:19:04.439Z,0.60
2023-12-12T02:21:34.756Z,0.68
2023-12-12T02:24:05.180Z,0.65
2023-12-12T02:26:35.575Z,0.70
2023-12-12T02:29:06.231Z,0.80
2023-12-12T02:31:36.547Z,0.60
2023-12-12T02:34:06.934Z,0.80
2023-12-12T02:36:37.802Z,0.80
2023-12-12T02:39:08.188Z,0.73
2023-12-12T02:41:38.513Z,0.80
2023-12-12T02:44:09.261Z,1.02
2023-12-12T02:46:42.482Z,1.10
2023-12-12T02:49:12.917Z,1.10
2023-12-12T02:51:43.231Z,1.33
2023-12-12T02:54:13.972Z,1.10
2023-12-12T02:56:44.232Z,1.33
2023-12-12T02:59:14.782Z,1.23
2023-12-12T03:01:46.302Z,0.93
2023-12-12T03:04:17.048Z,1.33
2023-12-12T03:06:47.750Z,1.10
2023-12-12T03:09:18.053Z,1.10
2023-12-12T03:11:50.231Z,0.93
2023-12-12T03:14:20.805Z,2.47
2023-12-12T03:16:51.255Z,1.60
2023-12-12T03:19:21.852Z,1.23
2023-12-12T03:21:53.327Z,1.60
2023-12-12T03:24:23.693Z,1.50
2023-12-12T03:26:53.931Z,1.40
2023-12-12T03:29:24.521Z,1.73
2023-12-12T03:31:54.823Z,1.75
2023-12-12T03:34:25.329Z,1.95
2023-12-12T03:36:56.763Z,1.55
2023-12-12T03:39:27.543Z,1.33
2023-12-12T03:41:58.311Z,1.90
2023-12-12T03:44:28.650Z,1.55
2023-12-12T03:46:58.901Z,1.77
2023-12-12T03:49:29.357Z,1.60
2023-12-12T03:51:59.856Z,2.03
2023-12-12T03:54:30.254Z,1.33
2023-12-12T03:57:00.621Z,1.67
2023-12-12T03:59:30.955Z,1.70
2023-12-12T04:02:01.269Z,1.70
2023-12-12T04:04:31.968Z,1.77
2023-12-12T04:07:02.306Z,1.98
2023-12-12T04:09:32.756Z,1.58
2023-12-12T04:12:02.992Z,1.48
2023-12-12T04:14:33.309Z,1.70
2023-12-12T04:17:03.611Z,1.40
2023-12-12T04:19:34.042Z,2.85
2023-12-12T04:22:04.392Z,2.03
2023-12-12T04:24:34.836Z,1.77
2023-12-12T04:27:05.152Z,2.15
2023-12-12T04:29:35.484Z,2.20
2023-12-12T04:32:05.803Z,1.75
2023-12-12T04:34:37.392Z,1.88
2023-12-12T04:37:08.026Z,1.67
2023-12-12T04:39:39.197Z,2.22
2023-12-12T04:42:09.646Z,1.67
2023-12-12T04:44:39.956Z,1.65
2023-12-12T04:47:10.317Z,1.80
2023-12-12T04:49:40.773Z,1.60
2023-12-12T04:52:11.249Z,2.00
2023-12-12T04:54:41.646Z,2.05
2023-12-12T04:57:11.912Z,1.60
2023-12-12T04:59:42.225Z,2.53
2023-12-12T05:02:12.609Z,1.83
2023-12-12T05:04:43.086Z,1.90
2023-12-12T05:07:13.390Z,2.03
2023-12-12T05:09:44.460Z,2.10
2023-12-12T05:12:14.699Z,1.90
2023-12-12T05:14:44.995Z,1.95
2023-12-12T05:20:04.598Z,2.03
2023-12-12T05:22:37.306Z,1.67
2023-12-12T05:25:08.088Z,1.67
2023-12-12T05:27:38.457Z,2.38
2023-12-12T05:30:09.484Z,1.65
2023-12-12T05:32:39.772Z,1.92
2023-12-12T05:35:11.109Z,2.30
2023-12-12T05:37:41.926Z,2.17
2023-12-12T05:40:12.661Z,3.15
2023-12-12T05:42:43.058Z,2.10
2023-12-12T05:45:13.803Z,2.08
2023-12-12T05:47:46.341Z,1.92
2023-12-12T05:50:16.822Z,2.22
2023-12-12T05:52:47.184Z,2.20
2023-12-12T05:55:17.761Z,1.90
2023-12-12T05:57:48.515Z,1.90
2023-12-12T06:00:19.474Z,3.17
2023-12-12T06:02:52.875Z,2.65
2023-12-12T06:05:24.090Z,2.08
2023-12-12T06:07:55.648Z,2.50
2023-12-12T06:10:27.385Z,1.98
2023-12-12T06:12:57.726Z,2.00
2023-12-12T06:15:28.153Z,2.45
2023-12-12T06:17:59.622Z,2.53
2023-12-12T06:20:30.028Z,1.90
2023-12-12T06:23:00.281Z,2.08
2023-12-12T06:25:30.677Z,2.58
2023-12-12T06:28:02.152Z,2.03
2023-12-12T06:30:58.497Z,2.20
2023-12-12T06:33:32.389Z,3.47
2023-12-12T06:36:02.818Z,2.40
2023-12-12T06:38:33.069Z,1.98
2023-12-12T06:41:03.468Z,2.05
2023-12-12T06:43:34.062Z,2.38
2023-12-12T06:46:05.500Z,2.53
2023-12-12T06:48:35.934Z,2.35
2023-12-12T06:51:15.089Z,2.05
2023-12-12T06:53:45.321Z,2.53
2023-12-12T06:56:15.662Z,1.70
2023-12-12T06:58:45.957Z,2.97
2023-12-12T07:01:17.545Z,3.58
2023-12-12T07:03:48.811Z,2.72
2023-12-12T07:06:22.716Z,2.50
2023-12-12T07:08:53.439Z,1.88
2023-12-12T07:11:26.073Z,2.10
2023-12-12T07:13:56.388Z,2.28
2023-12-12T07:16:32.087Z,2.17
2023-12-12T07:19:02.491Z,2.47
2023-12-12T07:21:33.073Z,2.10
2023-12-12T07:24:03.363Z,2.55
2023-12-12T07:26:33.698Z,2.88
2023-12-12T07:29:04.110Z,2.33
2023-12-12T07:31:34.491Z,2.00
2023-12-12T07:34:04.823Z,2.03
2023-12-12T07:36:35.284Z,2.30
2023-12-12T07:39:05.636Z,2.88
2023-12-12T07:41:40.345Z,2.05
2023-12-12T07:44:10.616Z,2.08
2023-12-12T07:46:41.794Z,2.00
2023-12-12T07:49:12.328Z,1.98
2023-12-12T07:51:43.298Z,2.15
2023-12-12T07:54:14.076Z,1.98
2023-12-12T07:56:44.904Z,2.45
2023-12-12T07:59:16.184Z,3.05
2023-12-12T08:01:46.706Z,2.72
2023-12-12T08:04:17.266Z,2.50
2023-12-12T08:06:48.890Z,2.10
2023-12-12T08:09:19.224Z,2.03
2023-12-12T08:11:49.865Z,1.45
2023-12-12T08:14:20.163Z,2.70
2023-12-12T08:16:50.750Z,2.00
2023-12-12T08:19:21.358Z,2.15
2023-12-12T08:21:51.894Z,1.85
2023-12-12T08:24:23.252Z,2.40
2023-12-12T08:26:54.000Z,2.75
2023-12-12T08:29:24.510Z,1.90
2023-12-12T08:31:55.342Z,2.13
2023-12-12T08:34:26.736Z,2.67
2023-12-12T08:36:57.195Z,2.45
2023-12-12T08:39:27.453Z,2.78
2023-12-12T08:41:57.869Z,2.00
2023-12-12T08:44:28.732Z,2.95
2023-12-12T08:47:00.673Z,2.00
2023-12-12T08:49:32.210Z,2.00
2023-12-12T08:52:02.589Z,2.05
2023-12-12T08:54:32.884Z,2.40
2023-12-12T08:57:05.262Z,2.38
2023-12-12T08:59:35.531Z,2.40
2023-12-12T09:02:06.850Z,2.60
2023-12-12T09:04:37.904Z,2.25
2023-12-12T09:07:09.468Z,2.60
2023-12-12T09:09:45.845Z,1.98
2023-12-12T09:12:17.403Z,2.72
2023-12-12T09:14:48.451Z,2.38
2023-12-12T09:17:19.155Z,2.42
2023-12-12T09:19:51.681Z,2.30
2023-12-12T09:22:24.402Z,2.72
2023-12-12T09:24:54.972Z,2.45
2023-12-12T09:27:25.839Z,2.42
2023-12-12T09:29:56.267Z,2.83
2023-12-12T09:32:27.099Z,2.40
2023-12-12T09:34:57.984Z,2.75
2023-12-12T09:37:29.532Z,2.67
2023-12-12T09:40:00.021Z,2.53
2023-12-12T09:42:35.489Z,2.45
2023-12-12T09:45:16.534Z,3.03
2023-12-12T09:47:49.313Z,2.65
2023-12-12T09:50:21.421Z,2.55
2023-12-12T09:52:54.683Z,2.45
2023-12-12T09:55:26.818Z,2.42
2023-12-12T09:57:57.207Z,2.50
2023-12-12T10:00:27.565Z,2.35
2023-12-12T10:03:01.471Z,2.00
2023-12-12T10:05:33.662Z,2.42
2023-12-12T10:08:14.392Z,2.35
2023-12-12T10:10:45.914Z,1.90
2023-12-12T10:13:16.938Z,2.05
2023-12-12T10:15:47.364Z,2.38
2023-12-12T10:18:18.502Z,3.22
2023-12-12T10:20:48.879Z,2.05
2023-12-12T10:23:19.262Z,1.90
2023-12-12T10:25:52.866Z,1.75
2023-12-12T10:28:25.102Z,1.88
2023-12-12T10:30:57.423Z,1.95
2023-12-12T10:33:30.890Z,1.92
2023-12-12T10:36:06.561Z,2.10
2023-12-12T10:38:38.763Z,2.65
2023-12-12T10:41:17.320Z,2.38
2023-12-12T10:43:50.191Z,1.88
2023-12-12T10:46:22.992Z,1.70
2023-12-12T10:48:56.206Z,2.08
2023-12-12T10:51:28.499Z,2.30
2023-12-12T10:54:00.065Z,1.70
2023-12-12T10:56:38.349Z,2.17
2023-12-12T10:59:56.015Z,2.25
2023-12-12T11:02:01.411Z,2.00
2023-12-12T11:04:33.701Z,1.92
2023-12-12T11:07:04.346Z,1.80
2023-12-12T11:09:35.049Z,2.50
2023-12-12T11:12:05.890Z,2.45
2023-12-12T11:14:37.227Z,3.25
2023-12-12T11:17:13.088Z,1.73
2023-12-12T11:19:44.011Z,1.65
2023-12-12T11:22:35.561Z,1.80
2023-12-12T11:25:13.652Z,2.33
2023-12-12T11:27:48.573Z,2.28
2023-12-12T11:30:34.314Z,2.45
2023-12-12T11:33:04.803Z,1.58
2023-12-12T11:35:36.305Z,1.50
2023-12-12T11:38:36.173Z,1.77
2023-12-12T11:41:16.800Z,2.13
2023-12-12T11:43:48.004Z,1.95
2023-12-12T11:46:25.308Z,2.00
2023-12-12T11:48:56.372Z,2.58
2023-12-12T11:51:38.892Z,2.00
2023-12-12T11:54:12.572Z,1.60
2023-12-12T11:56:42.866Z,1.90
2023-12-12T11:59:13.547Z,2.20
2023-12-12T12:01:43.973Z,2.13
2023-12-12T12:04:16.285Z,2.13
2023-12-12T12:06:47.147Z,2.08
2023-12-12T12:09:19.351Z,1.83
2023-12-12T12:11:55.120Z,2.20
2023-12-12T12:14:27.776Z,2.20
2023-12-12T12:17:01.160Z,1.90
2023-12-12T12:19:36.942Z,2.78
2023-12-12T12:22:17.103Z,2.45
2023-12-12T12:24:50.920Z,3.03
2023-12-12T12:27:21.317Z,2.25
2023-12-12T12:30:07.077Z,2.22
2023-12-12T12:32:38.236Z,2.65
2023-12-12T12:35:14.663Z,2.75
2023-12-12T12:37:45.632Z,2.55
2023-12-12T12:40:33.321Z,2.67
2023-12-12T12:43:07.381Z,3.47
2023-12-12T12:45:38.098Z,2.50
2023-12-12T12:48:08.715Z,3.28
2023-12-12T12:50:39.185Z,3.10
2023-12-12T12:53:09.517Z,3.47
2023-12-12T12:55:44.255Z,3.35
2023-12-12T12:58:16.001Z,2.85
2023-12-12T13:00:47.343Z,3.13
2023-12-12T13:03:18.265Z,2.58
2023-12-12T13:05:49.863Z,2.85
2023-12-12T13:08:29.120Z,2.65
2023-12-12T13:10:59.879Z,3.85
2023-12-12T13:13:30.277Z,3.05
2023-12-12T13:16:00.759Z,3.45
2023-12-12T13:18:32.900Z,3.30
2023-12-12T13:21:03.806Z,2.83
2023-12-12T13:23:35.840Z,3.30
2023-12-12T13:26:07.908Z,3.22
2023-12-12T13:28:38.514Z,3.50
2023-12-12T13:31:09.191Z,3.30
2023-12-12T13:33:40.252Z,3.00
2023-12-12T13:36:10.824Z,3.88
2023-12-12T13:38:42.287Z,3.10
2023-12-12T13:41:12.839Z,3.38
2023-12-12T13:43:45.961Z,3.08
2023-12-12T13:46:17.825Z,3.05
2023-12-12T13:48:48.266Z,2.85
2023-12-12T13:51:23.130Z,3.17
2023-12-12T13:53:58.224Z,2.63
2023-12-12T13:56:28.978Z,3.38
2023-12-12T13:59:04.185Z,4.05
2023-12-12T14:01:38.152Z,2.80
2023-12-12T14:04:10.612Z,3.35
2023-12-12T14:06:42.293Z,3.20
2023-12-12T14:09:13.322Z,3.60
2023-12-12T14:11:43.691Z,3.47
2023-12-12T14:14:14.836Z,3.40
2023-12-12T14:16:47.496Z,3.30
2023-12-12T14:19:22.211Z,3.10
2023-12-12T14:21:53.353Z,3.00
2023-12-12T14:24:24.661Z,3.00
2023-12-12T14:26:55.402Z,3.30
2023-12-12T14:29:25.965Z,3.53
2023-12-12T14:31:56.445Z,3.90
2023-12-12T14:34:27.251Z,3.42
2023-12-12T14:36:57.589Z,3.38
2023-12-12T14:39:27.892Z,3.65
2023-12-12T14:42:00.868Z,3.25
2023-12-12T14:44:34.364Z,3.45
2023-12-12T14:47:04.818Z,3.53
2023-12-12T14:49:35.206Z,4.00
2023-12-12T14:52:05.814Z,3.30
2023-12-12T14:54:36.598Z,3.83
2023-12-12T14:57:13.419Z,3.35
2023-12-12T14:59:50.143Z,3.92
2023-12-12T15:02:20.721Z,3.42
2023-12-12T15:04:51.277Z,2.78
2023-12-12T15:07:21.672Z,3.17
2023-12-12T15:09:52.056Z,3.25
2023-12-12T15:12:22.448Z,3.35
2023-12-12T15:14:52.747Z,3.03
2023-12-12T15:17:23.508Z,3.33
2023-12-12T15:19:53.912Z,3.75
2023-12-12T15:22:25.938Z,2.97
2023-12-12T15:24:56.300Z,3.63
2023-12-12T15:27:27.346Z,3.53
2023-12-12T15:29:58.732Z,3.75
2023-12-12T15:32:29.462Z,3.35
2023-12-12T15:35:02.761Z,3.83
2023-12-12T15:37:33.309Z,4.10
2023-12-12T15:40:04.452Z,3.72
2023-12-12T15:42:35.828Z,3.65
2023-12-12T15:45:06.995Z,3.80
2023-12-12T15:47:39.015Z,3.58
2023-12-12T15:50:11.868Z,3.15
2023-12-12T15:52:42.625Z,3.85
2023-12-12T15:55:13.425Z,3.13
2023-12-12T15:57:44.710Z,3.92
2023-12-12T16:00:17.185Z,3.78
2023-12-12T16:02:47.839Z,3.47
2023-12-12T16:05:19.744Z,3.85
2023-12-12T16:07:50.368Z,4.82
2023-12-12T16:10:21.825Z,4.47
2023-12-12T16:12:52.154Z,3.38
2023-12-12T16:15:23.089Z,3.50
2023-12-12T16:17:54.046Z,3.72
2023-12-12T16:20:24.466Z,4.10
2023-12-12T16:22:54.893Z,3.17
2023-12-12T16:25:25.804Z,4.22
2023-12-12T16:27:56.740Z,3.83
2023-12-12T16:30:31.352Z,4.40
2023-12-12T16:33:06.184Z,4.13
2023-12-12T16:35:36.524Z,3.65
2023-12-12T16:38:07.424Z,3.83
2023-12-12T16:40:42.552Z,4.57
2023-12-12T16:43:14.041Z,3.53
2023-12-12T16:45:45.399Z,4.10
2023-12-12T16:48:15.866Z,4.10
2023-12-12T16:50:46.294Z,3.70
2023-12-12T16:53:19.579Z,4.25
2023-12-12T16:55:50.439Z,3.90
2023-12-12T16:58:21.128Z,3.75
2023-12-12T17:00:52.104Z,4.70
2023-12-12T17:03:23.156Z,4.30
2023-12-12T17:05:53.425Z,4.35
2023-12-12T17:08:24.011Z,4.18
2023-12-12T17:10:55.380Z,3.97
2023-12-12T17:13:26.013Z,4.25
2023-12-12T17:16:00.675Z,4.57
2023-12-12T17:18:31.186Z,4.30
2023-12-12T17:21:02.211Z,4.00
2023-12-12T17:23:32.491Z,4.38
2023-12-12T17:26:04.864Z,4.32
2023-12-12T17:28:35.845Z,3.83
2023-12-12T17:31:06.759Z,4.35
2023-12-12T17:33:37.173Z,4.10
2023-12-12T17:36:09.021Z,4.13
2023-12-12T17:38:56.003Z,4.43
2023-12-12T17:41:26.355Z,4.63
2023-12-12T17:43:57.231Z,4.35
2023-12-12T17:46:27.576Z,4.28
2023-12-12T17:49:00.763Z,4.05
2023-12-12T17:51:31.122Z,4.30
2023-12-12T17:54:03.379Z,4.22
2023-12-12T17:56:33.716Z,3.78
2023-12-12T17:59:05.425Z,5.32
2023-12-12T18:01:41.316Z,4.03
2023-12-12T18:04:12.434Z,4.68
2023-12-12T18:06:43.309Z,4.90
2023-12-12T18:09:13.580Z,4.18
2023-12-12T18:11:44.120Z,4.57
2023-12-12T18:14:14.619Z,4.50
2023-12-12T18:16:44.968Z,4.40
2023-12-12T18:19:15.366Z,4.90
2023-12-12T18:21:45.698Z,4.47
2023-12-12T18:24:17.754Z,4.20
2023-12-12T18:26:48.075Z,5.75
2023-12-12T18:29:18.670Z,4.50
2023-12-12T18:31:49.096Z,3.90
2023-12-12T18:34:20.102Z,4.20
2023-12-12T18:36:50.902Z,4.05
2023-12-12T18:39:21.199Z,3.67
2023-12-12T18:41:51.476Z,3.75
2023-12-12T18:44:21.861Z,4.18
2023-12-12T18:46:52.201Z,4.40
2023-12-12T18:49:23.178Z,3.88
2023-12-12T18:51:53.562Z,3.20
2023-12-12T18:54:24.237Z,3.65
2023-12-12T18:56:55.405Z,3.65
2023-12-12T18:59:26.071Z,2.95
2023-12-12T19:01:56.510Z,2.80
2023-12-12T19:04:27.671Z,2.60
2023-12-12T19:07:03.645Z,2.53
2023-12-12T19:09:34.456Z,3.47
2023-12-12T19:12:07.008Z,2.55
2023-12-12T19:14:38.761Z,2.72
2023-12-12T19:17:09.129Z,2.78
2023-12-12T19:19:41.295Z,2.58
2023-12-12T19:22:11.953Z,2.60
2023-12-12T19:24:42.320Z,2.30
2023-12-12T19:27:13.241Z,2.40
2023-12-12T19:29:44.253Z,2.75
2023-12-12T19:32:14.588Z,2.70
2023-12-12T19:34:45.007Z,2.83
2023-12-12T19:37:16.033Z,2.38
2023-12-12T19:39:49.719Z,2.63
2023-12-12T19:42:21.840Z,2.35
2023-12-12T19:44:52.234Z,2.38
2023-12-12T19:47:22.525Z,2.17
2023-12-12T19:49:54.030Z,2.38
2023-12-12T19:52:24.435Z,1.85
2023-12-12T19:54:54.731Z,2.22
2023-12-12T19:57:26.952Z,2.15
2023-12-12T19:59:57.608Z,2.25
2023-12-12T20:02:28.283Z,2.85
2023-12-12T20:05:00.339Z,1.80
2023-12-12T20:07:31.674Z,2.20
2023-12-12T20:10:04.469Z,2.08
2023-12-12T20:12:35.130Z,2.22
2023-12-12T20:15:05.959Z,2.67
2023-12-12T20:17:36.919Z,2.47
2023-12-12T20:20:10.419Z,2.05
2023-12-12T20:22:40.892Z,2.00
2023-12-12T20:25:12.736Z,2.47
2023-12-12T20:27:47.430Z,2.40
2023-12-12T20:30:19.052Z,2.13
2023-12-12T20:32:50.569Z,2.60
2023-12-12T20:35:20.950Z,2.60
2023-12-12T20:37:51.255Z,2.05
2023-12-12T20:40:22.119Z,2.30
2023-12-12T20:42:52.586Z,3.03
2023-12-12T20:45:22.991Z,2.03
2023-12-12T20:47:53.444Z,1.80
2023-12-12T20:50:24.104Z,2.15
2023-12-12T20:52:55.626Z,1.85
2023-12-12T20:55:27.294Z,2.03
2023-12-12T20:57:59.788Z,2.00
2023-12-12T21:00:33.242Z,2.40
2023-12-12T21:03:03.945Z,2.60
2023-12-12T21:05:34.444Z,2.25
2023-12-12T21:08:04.974Z,2.42
2023-12-12T21:10:36.525Z,2.35
2023-12-12T21:13:07.390Z,2.20
2023-12-12T21:15:37.878Z,2.58
2023-12-12T21:18:08.788Z,2.50
2023-12-12T21:20:39.309Z,2.15
2023-12-12T21:23:11.077Z,2.33
2023-12-12T21:25:41.383Z,2.30
2023-12-12T21:28:12.153Z,2.58
2023-12-12T21:30:42.971Z,1.98
2023-12-12T21:33:13.438Z,2.17
2023-12-12T21:35:44.172Z,1.85
2023-12-12T21:38:14.609Z,2.00
2023-12-12T21:40:45.699Z,2.08
2023-12-12T21:43:16.215Z,2.15
2023-12-12T21:45:48.494Z,2.55
2023-12-12T21:48:19.125Z,1.98
2023-12-12T21:50:49.672Z,1.70
2023-12-12T21:53:20.329Z,2.00
2023-12-12T21:55:50.987Z,2.22
2023-12-12T21:58:22.831Z,1.95
2023-12-12T22:00:53.659Z,1.80
2023-12-12T22:03:24.427Z,2.08
2023-12-12T22:05:54.829Z,1.52
2023-12-12T22:08:25.960Z,1.73
2023-12-12T22:10:56.702Z,1.63
2023-12-12T22:13:27.490Z,1.40
2023-12-12T22:15:57.810Z,1.63
2023-12-12T22:18:28.837Z,2.40
2023-12-12T22:21:02.068Z,1.77
2023-12-12T22:23:33.191Z,1.73
2023-12-12T22:26:03.918Z,1.63
2023-12-12T22:28:34.450Z,1.55
2023-12-12T22:31:05.729Z,2.15
2023-12-12T22:33:38.677Z,1.67
2023-12-12T22:36:19.340Z,1.90
2023-12-12T22:38:53.738Z,2.22
2023-12-12T22:41:25.853Z,1.70
2023-12-12T22:43:56.490Z,1.95
2023-12-12T22:46:26.957Z,1.80
2023-12-12T22:48:57.382Z,1.85
2023-12-12T22:51:31.308Z,1.88
2023-12-12T22:54:04.273Z,1.40
2023-12-12T22:56:35.935Z,1.80
2023-12-12T22:59:07.590Z,2.03
2023-12-12T23:01:38.847Z,1.67
2023-12-12T23:04:10.118Z,1.48
2023-12-12T23:06:40.651Z,2.05
2023-12-12T23:09:13.871Z,1.60
2023-12-12T23:11:44.382Z,1.65
2023-12-12T23:14:15.021Z,1.83
2023-12-12T23:16:45.474Z,1.70
2023-12-12T23:19:16.225Z,2.08
2023-12-12T23:21:46.620Z,1.70
2023-12-12T23:24:17.386Z,2.35
2023-12-12T23:26:47.818Z,2.00
2023-12-12T23:29:18.103Z,2.03
2023-12-12T23:31:49.126Z,2.10
2023-12-12T23:34:19.523Z,1.73
2023-12-12T23:36:49.842Z,1.90
2023-12-12T23:39:20.580Z,2.25
2023-12-12T23:41:50.933Z,1.80
2023-12-12T23:44:23.819Z,1.90
2023-12-12T23:46:55.660Z,2.47
2023-12-12T23:49:26.008Z,2.33
2023-12-12T23:51:58.433Z,2.53
2023-12-12T23:54:29.565Z,1.77
2023-12-12T23:57:00.296Z,2.22
2023-12-12T23:59:33.143Z,1.98
